Aeroporto :
LOGIN :

Iscrizione | Disclaimer

   EN    FR    IT 

 










Sommario :    VFR   VFR Marginale   IFR   IFR Intensivo   IFR Molto Intensivo
Visibilità : 
Base nubi : 
>= 8 km
>= 3000ft
5 / 8 km
1000 / 3000 ft
1500m / 5 km
500 / 1000 ft
800 / 1500m
200 / 500 ft
< 800m
< 200 ft
Simboli :   Temporali  Nebbia  Neve Forte  Precipitazioni Forti  Vento > 20 kt
SIGMETs :   Varie  Temporali  Ghiacco  Turbolenza  Onda orograficha  Ceneri Vulcaniche






- Altitudine del aeroporto : 512 ft
- Codice IATA : URO


LFOP - Rouen Vallée de Seine

ULTIMO METAR :
  • 171800Z AUTO 23010KT 9999 FEW023 SCT030 BKN036 06/05 Q1020 TEMPO 25020G37KT 3000 SHRA BKN020CB

METARs OBSOLETI :
  • 171730Z AUTO 27011KT 240V320 9999 FEW020/// SCT027/// BKN034/// ///TCU 07/05 Q1019 TEMPO 25020G37KT 3000 SHRA BKN020CB
  • 171700Z AUTO 25013KT 220V280 9999 BKN029/// BKN058/// OVC078/// ///TCU 08/04 Q1018 TEMPO 25020G37KT 3000 SHRA BKN020CB
  • 171630Z AUTO 24015KT 9999 FEW027/// SCT076/// BKN094/// ///TCU 08/04 Q1018 TEMPO 25020G37KT 3000 SHRA BKN020CB
  • 171600Z AUTO 25018KT 9999 BKN031/// ///TCU 08/04 Q1018 TEMPO 25020G37KT 3000 SHRA BKN020CB
  • 171530Z AUTO 26011KT 230V310 9999 SCT033/// SCT040/// BKN046/// ///TCU 08/05 Q1017 TEMPO 25020G37KT 3000 SHRA BKN020CB

TAF TAF LFOP
Valido dal 17 a 18 ore il 18 a 18 ore UTC


171700Z 1718/1818 25017G27KT 9999 BKN030
TEMPO 1718/1814 3000 SHRA BKN020CB
PROB40
TEMPO 1718/1724 25020G37KT
ATIS : +33 2 35 80 80 34
Met : +33 2 32 86 52 80



MetMap, La meteo Aeronautica in un colpo d'occhio ! - Copyright ORBIFLY Dicembre 2007 - Disclaimer

ORBIFLY MET'MAP TEAM :

Programmazione e sviluppo : Alexandra Zaïnal
Concezione : Baudouin d'Aumeries
Aiuto per la programmazione : Marc-Olivier Méhu
Supporto tecnico e logistico : Manuel Goepfert
Aiuto per la traduzione : Arnaldo La Scala

Contatto : metmap@orbifly.com




FONTI E CREDITI :

   NOAA